Time;durP1;ratioP1;P1;durP2;ratioP2;P2;SDS_P1;SDS_P2;PMS_P1;PMS_P2;Temp;Humidity;BMP_temperature;BMP_pressure;BME280_temperature;BME280_humidity;BME280_pressure;Samples;Min_cycle;Max_cycle;Signal;HPM_P1;HPM_P2
2022/03/20 00:00:54;;;;;;;13.70;7.97;;;;;;;;;;5037279;28;20862;-72
2022/03/20 00:03:31;;;;;;;10.20;7.20;;;;;;;;;;5036589;28;20457;-72
2022/03/20 00:06:09;;;;;;;10.37;8.13;;;;;;;;;;5035562;28;20715;-72
2022/03/20 00:08:52;;;;;;;14.23;7.87;;;;;;;;;;5036590;28;20462;-73
2022/03/20 00:11:22;;;;;;;11.23;7.40;;;;;;;;;;5021382;28;20459;-72
2022/03/20 00:13:55;;;;;;;12.43;8.27;;;;;;;;;;5037503;28;20568;-73
2022/03/20 00:16:29;;;;;;;11.37;7.50;;;;;;;;;;5037632;28;20522;-72
2022/03/20 00:19:15;;;;;;;11.90;8.60;;;;;;;;;;5037194;28;20893;-73
2022/03/20 00:21:44;;;;;;;10.97;7.60;;;;;;;;;;5038241;28;20950;-72
2022/03/20 00:24:15;;;;;;;12.37;7.07;;;;;;;;;;5037455;28;20458;-72
2022/03/20 00:26:46;;;;;;;13.77;7.93;;;;;;;;;;5037999;28;20490;-73
2022/03/20 00:29:15;;;;;;;15.93;7.87;;;;;;;;;;5037841;28;20626;-72
2022/03/20 00:31:42;;;;;;;13.33;9.23;;;;;;;;;;5037842;28;20757;-72
2022/03/20 00:34:14;;;;;;;13.00;8.43;;;;;;;;;;5037295;28;20683;-73
2022/03/20 00:36:48;;;;;;;17.27;8.23;;;;;;;;;;5037722;28;20780;-72
2022/03/20 00:39:19;;;;;;;16.43;8.77;;;;;;;;;;5037426;28;20453;-73
2022/03/20 00:41:47;;;;;;;13.13;7.63;;;;;;;;;;5037591;28;20462;-72
2022/03/20 00:44:17;;;;;;;17.23;8.93;;;;;;;;;;5037415;28;20466;-73
2022/03/20 00:46:45;;;;;;;13.13;9.60;;;;;;;;;;5036994;28;20501;-73
2022/03/20 00:49:15;;;;;;;19.93;9.87;;;;;;;;;;5038021;28;20454;-73
2022/03/20 00:51:43;;;;;;;23.90;11.40;;;;;;;;;;5037535;28;20462;-71
2022/03/20 00:54:12;;;;;;;15.30;10.73;;;;;;;;;;5036652;28;20496;-72
2022/03/20 00:56:46;;;;;;;18.70;10.13;;;;;;;;;;5037181;28;20494;-72
2022/03/20 00:59:16;;;;;;;13.60;9.77;;;;;;;;;;5038260;28;20953;-72
2022/03/20 01:01:45;;;;;;;15.20;9.70;;;;;;;;;;5038261;28;20486;-72
2022/03/20 01:04:13;;;;;;;15.13;10.90;;;;;;;;;;5021547;28;20442;-72
2022/03/20 01:06:43;;;;;;;15.43;10.63;;;;;;;;;;5035913;28;20477;-72
2022/03/20 01:09:13;;;;;;;18.30;9.87;;;;;;;;;;5036562;28;20874;-72
2022/03/20 01:11:44;;;;;;;17.57;10.73;;;;;;;;;;5035788;28;20532;-73
2022/03/20 01:14:13;;;;;;;13.40;8.97;;;;;;;;;;5035470;28;20503;-73
2022/03/20 01:16:41;;;;;;;22.47;10.70;;;;;;;;;;5036713;28;20483;-73
2022/03/20 01:19:09;;;;;;;14.73;9.77;;;;;;;;;;5036613;28;20450;-73
2022/03/20 01:21:39;;;;;;;17.90;10.77;;;;;;;;;;5037037;28;20466;-73
2022/03/20 01:24:08;;;;;;;14.17;10.57;;;;;;;;;;5036829;28;20482;-74
2022/03/20 01:26:37;;;;;;;21.60;10.77;;;;;;;;;;5036529;28;20466;-73
2022/03/20 01:29:06;;;;;;;19.83;10.73;;;;;;;;;;5036889;28;20485;-74
2022/03/20 01:31:37;;;;;;;19.50;10.73;;;;;;;;;;5035780;28;20521;-73
2022/03/20 01:34:08;;;;;;;24.97;11.50;;;;;;;;;;5035685;28;20498;-72
2022/03/20 01:36:37;;;;;;;17.07;10.57;;;;;;;;;;5034880;28;20490;-72
2022/03/20 01:39:04;;;;;;;19.63;10.40;;;;;;;;;;5037344;28;20454;-73
2022/03/20 01:41:32;;;;;;;15.70;10.90;;;;;;;;;;5035150;28;20462;-73
2022/03/20 01:44:02;;;;;;;19.27;10.37;;;;;;;;;;5036999;28;20516;-74
2022/03/20 01:46:30;;;;;;;21.17;11.70;;;;;;;;;;5035807;28;20470;-73
2022/03/20 01:48:58;;;;;;;17.27;10.73;;;;;;;;;;5035943;28;20465;-73
2022/03/20 01:54:07;;;;;;;15.60;9.67;;;;;;;;;;5034928;28;20912;-73
2022/03/20 01:56:36;;;;;;;15.90;9.30;;;;;;;;;;5035229;28;20494;-73
2022/03/20 01:59:05;;;;;;;17.40;11.03;;;;;;;;;;5036177;28;20749;-73
2022/03/20 02:01:33;;;;;;;11.73;9.70;;;;;;;;;;5019666;28;20558;-73
2022/03/20 02:04:00;;;;;;;21.27;11.43;;;;;;;;;;5034746;28;20967;-73
2022/03/20 02:06:30;;;;;;;18.50;11.13;;;;;;;;;;5035488;28;20878;-73
2022/03/20 02:09:00;;;;;;;21.10;11.30;;;;;;;;;;5036415;28;20462;-73
2022/03/20 02:11:28;;;;;;;21.60;10.17;;;;;;;;;;5035396;28;20462;-73
2022/03/20 02:13:55;;;;;;;19.87;11.70;;;;;;;;;;5035466;28;20952;-73
2022/03/20 02:16:25;;;;;;;15.30;10.13;;;;;;;;;;5036188;28;20490;-73
2022/03/20 02:18:54;;;;;;;20.17;10.23;;;;;;;;;;5035479;28;20473;-73
2022/03/20 02:21:39;;;;;;;18.40;11.57;;;;;;;;;;5035391;28;20719;-73
2022/03/20 02:24:26;;;;;;;20.87;11.27;;;;;;;;;;5035901;28;20498;-73
2022/03/20 02:27:02;;;;;;;23.13;11.80;;;;;;;;;;5035839;28;20480;-73
2022/03/20 02:29:30;;;;;;;21.03;10.80;;;;;;;;;;5035310;28;20544;-73
2022/03/20 02:31:59;;;;;;;17.90;10.57;;;;;;;;;;5035984;28;20713;-73
2022/03/20 02:34:28;;;;;;;17.43;11.43;;;;;;;;;;5035430;28;20450;-73
2022/03/20 02:36:59;;;;;;;17.17;10.23;;;;;;;;;;5035535;28;20521;-73
2022/03/20 02:39:28;;;;;;;22.90;11.47;;;;;;;;;;5035918;28;20493;-73
2022/03/20 02:41:57;;;;;;;20.07;10.63;;;;;;;;;;5044728;28;20456;-73
2022/03/20 02:44:39;;;;;;;18.83;11.30;;;;;;;;;;5053339;28;20481;-73
2022/03/20 02:47:07;;;;;;;14.70;10.37;;;;;;;;;;5054696;28;20465;-73
2022/03/20 02:49:38;;;;;;;12.97;10.43;;;;;;;;;;5055611;28;20536;-73
2022/03/20 02:52:07;;;;;;;18.43;11.27;;;;;;;;;;5055234;28;20508;-73
2022/03/20 02:54:44;;;;;;;17.03;10.00;;;;;;;;;;5055929;28;20461;-73
2022/03/20 02:57:12;;;;;;;15.90;11.00;;;;;;;;;;5054968;28;20884;-73
2022/03/20 02:59:40;;;;;;;17.07;10.63;;;;;;;;;;5056108;28;20465;-73
2022/03/20 03:02:11;;;;;;;21.43;11.80;;;;;;;;;;5053754;28;20445;-73
2022/03/20 03:04:42;;;;;;;18.17;10.60;;;;;;;;;;5055059;28;20856;-73
2022/03/20 03:07:10;;;;;;;14.27;9.90;;;;;;;;;;5055785;28;20539;-73
2022/03/20 03:12:24;;;;;;;17.57;11.53;;;;;;;;;;5058886;28;20437;-73
2022/03/20 03:17:37;;;;;;;18.73;10.70;;;;;;;;;;5058779;28;20904;-73
2022/03/20 03:20:05;;;;;;;18.30;11.20;;;;;;;;;;5058632;28;20457;-73
2022/03/20 03:22:33;;;;;;;19.13;11.03;;;;;;;;;;5059622;28;20472;-73
2022/03/20 03:25:02;;;;;;;20.70;12.13;;;;;;;;;;5059050;28;20465;-73
2022/03/20 03:27:30;;;;;;;19.07;11.07;;;;;;;;;;5058222;28;20453;-73
2022/03/20 03:29:58;;;;;;;20.30;11.80;;;;;;;;;;5059028;28;20465;-74
2022/03/20 03:32:26;;;;;;;20.27;11.80;;;;;;;;;;5058896;28;20477;-74
2022/03/20 03:37:39;;;;;;;17.27;10.70;;;;;;;;;;5059231;28;20472;-73
2022/03/20 03:40:13;;;;;;;16.17;9.77;;;;;;;;;;5057807;28;20471;-73
2022/03/20 03:42:42;;;;;;;14.53;10.80;;;;;;;;;;5059096;28;20445;-73
2022/03/20 03:45:10;;;;;;;19.17;10.80;;;;;;;;;;5058684;28;20822;-72
2022/03/20 03:47:38;;;;;;;20.10;11.60;;;;;;;;;;5058936;28;20484;-73
2022/03/20 03:50:07;;;;;;;19.13;10.80;;;;;;;;;;5057594;28;20936;-73
2022/03/20 03:52:34;;;;;;;16.53;10.70;;;;;;;;;;5057852;28;20862;-73
2022/03/20 03:55:02;;;;;;;18.30;11.17;;;;;;;;;;5057550;28;20473;-73
2022/03/20 03:57:32;;;;;;;19.20;13.30;;;;;;;;;;5057609;28;20508;-73
2022/03/20 04:00:00;;;;;;;19.57;11.70;;;;;;;;;;5051403;28;20743;-73
2022/03/20 04:02:29;;;;;;;17.20;11.23;;;;;;;;;;5040656;28;20469;-73
2022/03/20 04:04:57;;;;;;;20.03;11.93;;;;;;;;;;5040340;28;20466;-73
2022/03/20 04:07:27;;;;;;;20.43;12.47;;;;;;;;;;5055443;28;20480;-72
2022/03/20 04:09:58;;;;;;;18.80;11.50;;;;;;;;;;5042482;28;20466;-72
2022/03/20 04:12:26;;;;;;;17.50;11.30;;;;;;;;;;5057597;28;20464;-72
2022/03/20 04:15:02;;;;;;;18.20;11.03;;;;;;;;;;5057279;28;20496;-73
2022/03/20 04:17:30;;;;;;;24.53;12.73;;;;;;;;;;5057757;28;20496;-73
2022/03/20 04:19:58;;;;;;;20.70;12.70;;;;;;;;;;5057321;28;20461;-73
2022/03/20 04:22:26;;;;;;;17.90;11.83;;;;;;;;;;5056488;28;20485;-73
2022/03/20 04:24:54;;;;;;;19.23;11.83;;;;;;;;;;5058022;28;20476;-73
2022/03/20 04:27:22;;;;;;;17.10;10.90;;;;;;;;;;5056819;28;20535;-73
2022/03/20 04:29:52;;;;;;;16.83;11.53;;;;;;;;;;5056650;28;20497;-73
2022/03/20 04:32:21;;;;;;;18.87;11.37;;;;;;;;;;5057420;28;20499;-73
2022/03/20 04:34:49;;;;;;;23.20;11.33;;;;;;;;;;5056416;28;20495;-72
2022/03/20 04:37:18;;;;;;;22.33;12.00;;;;;;;;;;5058122;28;20496;-72
2022/03/20 04:39:46;;;;;;;17.47;12.73;;;;;;;;;;5055977;28;20489;-72
2022/03/20 04:42:13;;;;;;;21.20;11.27;;;;;;;;;;5056177;28;20445;-72
2022/03/20 04:44:43;;;;;;;21.10;12.73;;;;;;;;;;5055562;28;21056;-72
2022/03/20 05:00:56;;;;;;;22.13;12.90;;;;;;;;;;5058168;28;20452;-72
2022/03/20 05:03:24;;;;;;;16.30;11.67;;;;;;;;;;5058399;28;20460;-72
2022/03/20 05:05:53;;;;;;;21.33;13.40;;;;;;;;;;5056724;28;20489;-73
2022/03/20 05:08:21;;;;;;;16.63;10.87;;;;;;;;;;5055834;28;20458;-73
2022/03/20 05:13:36;;;;;;;18.83;11.30;;;;;;;;;;5054986;28;20480;-73
2022/03/20 05:16:04;;;;;;;26.90;12.43;;;;;;;;;;5056366;28;20465;-73
2022/03/20 05:18:32;;;;;;;18.80;12.23;;;;;;;;;;5055553;28;20494;-73
2022/03/20 05:21:02;;;;;;;21.83;11.63;;;;;;;;;;5055989;28;20466;-73
2022/03/20 05:23:29;;;;;;;21.90;14.10;;;;;;;;;;5055909;28;20457;-73
2022/03/20 05:25:57;;;;;;;16.73;11.60;;;;;;;;;;5056079;28;20793;-73
2022/03/20 05:28:28;;;;;;;17.73;10.63;;;;;;;;;;5055071;28;20446;-73
2022/03/20 05:30:56;;;;;;;20.50;12.17;;;;;;;;;;5055172;28;20972;-73
2022/03/20 05:33:24;;;;;;;19.63;12.13;;;;;;;;;;5054941;28;20458;-73
2022/03/20 05:35:51;;;;;;;21.00;11.67;;;;;;;;;;5055283;28;20534;-73
2022/03/20 05:38:23;;;;;;;17.83;11.27;;;;;;;;;;5055029;28;20511;-72
2022/03/20 05:41:43;;;;;;;20.47;13.20;;;;;;;;;;5055251;28;20475;-73
2022/03/20 05:43:39;;;;;;;16.90;11.33;;;;;;;;;;5054582;28;20552;-73
2022/03/20 05:46:08;;;;;;;17.70;11.23;;;;;;;;;;5053838;28;20469;-73
2022/03/20 05:48:37;;;;;;;19.27;11.57;;;;;;;;;;5054650;28;20449;-73
2022/03/20 05:51:07;;;;;;;21.40;12.10;;;;;;;;;;5054486;28;20473;-73
2022/03/20 05:53:38;;;;;;;18.37;11.07;;;;;;;;;;5054776;28;20553;-73
2022/03/20 05:58:54;;;;;;;22.53;12.90;;;;;;;;;;5054433;28;20440;-73
2022/03/20 06:01:23;;;;;;;22.77;11.70;;;;;;;;;;5054089;28;20493;-73
2022/03/20 06:03:51;;;;;;;16.63;11.50;;;;;;;;;;5054816;28;20453;-73
2022/03/20 06:06:19;;;;;;;22.80;12.23;;;;;;;;;;5054153;28;20461;-73
2022/03/20 06:08:49;;;;;;;20.93;11.87;;;;;;;;;;5054219;28;20476;-74
2022/03/20 06:11:17;;;;;;;22.73;12.73;;;;;;;;;;5053304;28;20458;-73
2022/03/20 06:13:48;;;;;;;22.67;12.17;;;;;;;;;;5054918;28;20486;-73
2022/03/20 06:16:17;;;;;;;19.80;13.63;;;;;;;;;;5053974;28;20472;-73
2022/03/20 06:18:48;;;;;;;19.33;12.10;;;;;;;;;;5053922;28;20908;-73
2022/03/20 06:21:19;;;;;;;16.77;11.50;;;;;;;;;;5049528;28;20474;-73
2022/03/20 06:23:48;;;;;;;21.00;12.80;;;;;;;;;;5035906;28;20533;-73
2022/03/20 06:26:17;;;;;;;18.87;11.67;;;;;;;;;;5035070;28;20458;-73
2022/03/20 06:28:49;;;;;;;18.10;12.40;;;;;;;;;;5035019;28;20497;-72
2022/03/20 06:31:17;;;;;;;18.83;13.20;;;;;;;;;;5034067;28;20866;-72
2022/03/20 06:33:45;;;;;;;18.97;10.73;;;;;;;;;;5033711;28;20442;-74
2022/03/20 06:36:15;;;;;;;19.00;12.03;;;;;;;;;;5035226;28;20763;-73
2022/03/20 06:38:43;;;;;;;14.13;11.17;;;;;;;;;;5034713;28;20465;-73
2022/03/20 06:41:12;;;;;;;19.37;11.13;;;;;;;;;;5034566;28;20466;-73
2022/03/20 06:43:40;;;;;;;18.93;12.50;;;;;;;;;;5034450;28;20473;-73
2022/03/20 06:46:08;;;;;;;18.20;11.87;;;;;;;;;;5037349;28;20466;-73
2022/03/20 06:48:38;;;;;;;16.00;10.87;;;;;;;;;;5039464;28;20460;-73
2022/03/20 06:51:06;;;;;;;19.90;12.03;;;;;;;;;;5039429;28;20472;-73
2022/03/20 06:53:34;;;;;;;18.90;12.57;;;;;;;;;;5038769;28;20489;-73
2022/03/20 06:56:02;;;;;;;20.03;11.73;;;;;;;;;;5038889;28;20454;-72
2022/03/20 06:58:31;;;;;;;17.03;11.27;;;;;;;;;;5038008;28;20492;-73
2022/03/20 07:01:02;;;;;;;25.17;12.97;;;;;;;;;;5043429;28;20477;-72
2022/03/20 07:03:30;;;;;;;17.47;11.53;;;;;;;;;;5059267;28;20457;-72
2022/03/20 07:05:59;;;;;;;18.07;10.87;;;;;;;;;;5057331;28;20901;-72
2022/03/20 07:08:28;;;;;;;25.87;12.10;;;;;;;;;;5057923;28;20495;-72
2022/03/20 07:10:56;;;;;;;20.60;12.43;;;;;;;;;;5056895;28;20526;-72
2022/03/20 07:16:10;;;;;;;17.63;10.93;;;;;;;;;;5056169;28;20444;-72
2022/03/20 07:18:41;;;;;;;17.30;10.30;;;;;;;;;;5054962;28;20535;-73
2022/03/20 07:21:09;;;;;;;20.77;12.87;;;;;;;;;;5056886;28;20735;-73
2022/03/20 07:23:38;;;;;;;16.70;11.73;;;;;;;;;;5057559;28;20735;-73
2022/03/20 07:31:37;;;;;;;16.60;11.13;;;;;;;;;;5048871;28;20885;-73
2022/03/20 07:34:05;;;;;;;16.27;11.33;;;;;;;;;;5056461;28;20548;-72
2022/03/20 07:36:34;;;;;;;13.83;9.67;;;;;;;;;;5055817;28;20511;-72
2022/03/20 07:39:02;;;;;;;17.00;12.90;;;;;;;;;;5054847;28;20476;-72
2022/03/20 07:41:30;;;;;;;19.97;11.10;;;;;;;;;;5056628;28;20499;-72
2022/03/20 07:44:03;;;;;;;18.83;11.67;;;;;;;;;;5056414;28;20449;-72
2022/03/20 07:46:31;;;;;;;18.73;10.73;;;;;;;;;;5056473;28;20530;-72
2022/03/20 07:49:07;;;;;;;20.90;12.60;;;;;;;;;;5055632;28;20468;-72
2022/03/20 07:51:34;;;;;;;17.97;11.47;;;;;;;;;;5055949;28;20531;-72
2022/03/20 07:54:08;;;;;;;17.70;10.60;;;;;;;;;;5055471;28;20465;-73
2022/03/20 07:56:36;;;;;;;13.37;7.83;;;;;;;;;;5055567;28;21077;-72
2022/03/20 07:59:06;;;;;;;18.87;10.90;;;;;;;;;;5054656;28;20855;-72
2022/03/20 08:01:34;;;;;;;17.50;10.87;;;;;;;;;;5054680;28;20449;-72
2022/03/20 08:04:08;;;;;;;20.13;12.30;;;;;;;;;;5054886;28;20746;-72
2022/03/20 08:06:36;;;;;;;17.90;11.47;;;;;;;;;;5054917;28;20465;-72
2022/03/20 08:09:04;;;;;;;16.47;11.83;;;;;;;;;;5054472;28;20939;-72
2022/03/20 08:11:33;;;;;;;16.53;9.97;;;;;;;;;;5054627;28;20466;-72
2022/03/20 08:14:07;;;;;;;17.47;11.10;;;;;;;;;;5055464;28;20500;-72
2022/03/20 08:16:37;;;;;;;19.40;9.90;;;;;;;;;;5045133;28;20454;-72
2022/03/20 08:19:08;;;;;;;20.50;10.80;;;;;;;;;;5053974;28;20822;-72
2022/03/20 08:21:42;;;;;;;23.00;11.07;;;;;;;;;;5046077;28;20478;-72
2022/03/20 08:24:14;;;;;;;21.67;10.83;;;;;;;;;;5038201;28;20538;-72
2022/03/20 08:26:44;;;;;;;15.20;10.03;;;;;;;;;;5037838;28;20548;-73
2022/03/20 08:29:13;;;;;;;19.37;11.50;;;;;;;;;;5037056;28;20541;-72
2022/03/20 08:31:47;;;;;;;15.30;10.80;;;;;;;;;;5037729;28;20459;-72
2022/03/20 08:34:17;;;;;;;15.40;10.43;;;;;;;;;;5040949;28;20452;-72
2022/03/20 08:36:45;;;;;;;17.47;12.23;;;;;;;;;;5038504;28;20458;-72
2022/03/20 08:39:22;;;;;;;19.20;12.10;;;;;;;;;;5037787;28;20486;-72
2022/03/20 08:41:50;;;;;;;15.57;10.33;;;;;;;;;;5038240;28;20458;-73
2022/03/20 08:44:25;;;;;;;14.37;10.90;;;;;;;;;;5037276;28;20466;-73
2022/03/20 08:46:54;;;;;;;14.17;11.10;;;;;;;;;;5040792;28;20555;-73
2022/03/20 08:49:23;;;;;;;19.33;10.53;;;;;;;;;;5051395;28;20469;-72
2022/03/20 08:51:51;;;;;;;18.33;11.20;;;;;;;;;;5044259;28;20454;-73
2022/03/20 08:54:19;;;;;;;22.10;13.10;;;;;;;;;;5036720;28;20465;-73
2022/03/20 08:56:47;;;;;;;14.80;11.47;;;;;;;;;;5037114;28;20749;-73
2022/03/20 08:59:17;;;;;;;18.27;11.37;;;;;;;;;;5045859;28;20507;-73
2022/03/20 09:01:51;;;;;;;17.90;10.83;;;;;;;;;;5054569;28;20697;-73
2022/03/20 09:04:19;;;;;;;18.27;11.63;;;;;;;;;;5054660;28;20961;-72
2022/03/20 09:06:49;;;;;;;17.70;10.90;;;;;;;;;;5053526;28;20456;-71
2022/03/20 09:09:17;;;;;;;17.00;11.10;;;;;;;;;;5053138;28;20458;-71
2022/03/20 09:11:47;;;;;;;19.83;12.33;;;;;;;;;;5053876;28;20465;-72
2022/03/20 09:14:15;;;;;;;18.90;12.87;;;;;;;;;;5054558;28;20500;-72
2022/03/20 09:19:29;;;;;;;20.33;12.73;;;;;;;;;;5035775;28;20616;-72
2022/03/20 09:21:59;;;;;;;15.00;10.53;;;;;;;;;;5033571;28;20454;-72
2022/03/20 09:24:26;;;;;;;21.60;11.33;;;;;;;;;;5014365;28;20459;-72
2022/03/20 09:26:54;;;;;;;17.60;12.17;;;;;;;;;;5039903;28;20463;-72
2022/03/20 09:29:23;;;;;;;18.90;12.50;;;;;;;;;;5036454;28;20786;-73
2022/03/20 09:31:56;;;;;;;17.03;11.90;;;;;;;;;;5036785;28;20454;-73
2022/03/20 09:34:32;;;;;;;18.70;11.97;;;;;;;;;;5035539;28;20538;-73
2022/03/20 09:37:05;;;;;;;20.90;12.67;;;;;;;;;;5036206;28;20489;-72
2022/03/20 09:39:33;;;;;;;17.17;11.50;;;;;;;;;;5028616;28;20491;-72
2022/03/20 09:42:06;;;;;;;14.20;9.73;;;;;;;;;;5048966;28;20480;-72
2022/03/20 09:44:40;;;;;;;21.27;12.80;;;;;;;;;;5046007;28;20886;-71
2022/03/20 09:47:12;;;;;;;24.80;12.47;;;;;;;;;;5040723;28;20456;-71
2022/03/20 09:49:41;;;;;;;17.27;11.90;;;;;;;;;;5034289;28;20745;-73
2022/03/20 09:52:16;;;;;;;18.90;12.70;;;;;;;;;;5027196;28;20553;-72
2022/03/20 09:54:45;;;;;;;19.00;12.00;;;;;;;;;;5034520;28;20917;-72
2022/03/20 09:57:15;;;;;;;20.70;12.80;;;;;;;;;;5035693;28;20454;-72
2022/03/20 09:59:43;;;;;;;20.27;12.77;;;;;;;;;;5035302;28;20462;-72
2022/03/20 10:02:12;;;;;;;16.83;10.90;;;;;;;;;;5035334;28;20481;-72
2022/03/20 10:04:56;;;;;;;19.10;11.93;;;;;;;;;;5035411;28;20469;-72
2022/03/20 10:07:30;;;;;;;23.70;12.63;;;;;;;;;;5035481;28;20874;-72
2022/03/20 10:10:11;;;;;;;17.53;13.70;;;;;;;;;;5035157;28;20470;-73
2022/03/20 10:12:52;;;;;;;22.27;12.23;;;;;;;;;;5039171;28;20749;-72
2022/03/20 10:15:35;;;;;;;21.40;12.40;;;;;;;;;;5050757;28;20507;-76
2022/03/20 10:18:14;;;;;;;24.13;12.43;;;;;;;;;;5051134;28;20496;-72
2022/03/20 10:20:44;;;;;;;18.17;11.90;;;;;;;;;;5038774;28;20478;-72
2022/03/20 10:23:37;;;;;;;21.40;13.67;;;;;;;;;;5032394;28;20554;-73
2022/03/20 10:26:14;;;;;;;19.13;12.37;;;;;;;;;;5033544;28;20450;-73
2022/03/20 10:28:45;;;;;;;17.10;12.10;;;;;;;;;;5033603;28;20936;-73
2022/03/20 10:31:17;;;;;;;18.67;12.37;;;;;;;;;;5025449;28;20462;-73
2022/03/20 10:33:46;;;;;;;20.90;11.97;;;;;;;;;;5032953;28;20466;-73
2022/03/20 10:36:16;;;;;;;19.07;12.73;;;;;;;;;;5048177;28;20531;-73
2022/03/20 10:38:46;;;;;;;16.27;11.30;;;;;;;;;;5053148;28;20489;-71
2022/03/20 10:41:25;;;;;;;18.13;13.53;;;;;;;;;;5050247;28;20492;-71
2022/03/20 10:43:54;;;;;;;16.50;11.77;;;;;;;;;;5049925;28;20460;-72
2022/03/20 10:46:23;;;;;;;18.33;12.80;;;;;;;;;;5054921;28;20464;-72
2022/03/20 10:48:57;;;;;;;18.20;12.80;;;;;;;;;;5054176;28;20462;-72
2022/03/20 10:51:37;;;;;;;20.80;13.50;;;;;;;;;;5053675;28;20524;-72
2022/03/20 10:54:07;;;;;;;20.50;11.83;;;;;;;;;;5052716;28;20469;-72
2022/03/20 10:56:35;;;;;;;20.00;13.27;;;;;;;;;;5053216;28;20449;-71
2022/03/20 10:59:14;;;;;;;19.20;12.47;;;;;;;;;;5052629;28;20497;-72
2022/03/20 11:01:50;;;;;;;18.23;12.00;;;;;;;;;;5052830;28;20453;-72
2022/03/20 11:04:31;;;;;;;20.87;10.97;;;;;;;;;;5039533;28;20461;-73
2022/03/20 11:07:07;;;;;;;13.70;11.40;;;;;;;;;;5042527;28;20450;-72
2022/03/20 11:09:37;;;;;;;17.57;11.33;;;;;;;;;;5040447;28;20566;-72
2022/03/20 11:12:06;;;;;;;18.83;12.00;;;;;;;;;;5051204;28;20452;-72
2022/03/20 11:14:35;;;;;;;17.43;12.00;;;;;;;;;;5052467;28;20868;-73
2022/03/20 11:17:05;;;;;;;20.40;12.37;;;;;;;;;;5050484;28;20715;-72
2022/03/20 11:19:34;;;;;;;19.87;12.90;;;;;;;;;;5049668;28;20897;-72
2022/03/20 11:22:10;;;;;;;16.27;12.37;;;;;;;;;;5034751;28;20528;-71
2022/03/20 11:24:51;;;;;;;20.20;12.50;;;;;;;;;;5050378;28;20457;-72
2022/03/20 11:30:13;;;;;;;16.27;10.30;;;;;;;;;;5049736;28;20461;-73
2022/03/20 11:32:50;;;;;;;17.13;12.10;;;;;;;;;;5054370;28;20710;-71
2022/03/20 11:35:30;;;;;;;17.63;11.00;;;;;;;;;;5054629;28;20484;-72
2022/03/20 11:38:13;;;;;;;16.90;10.47;;;;;;;;;;5041385;28;20448;-71
2022/03/20 11:41:03;;;;;;;15.37;11.00;;;;;;;;;;5052279;28;20467;-72
2022/03/20 11:43:31;;;;;;;15.60;12.03;;;;;;;;;;5053328;28;20874;-72
2022/03/20 11:46:20;;;;;;;22.50;11.83;;;;;;;;;;5051673;28;20523;-72
2022/03/20 11:49:03;;;;;;;20.17;9.87;;;;;;;;;;5053554;28;20535;-72
2022/03/20 11:51:45;;;;;;;16.50;11.20;;;;;;;;;;5055067;28;20548;-72
2022/03/20 11:54:13;;;;;;;13.70;9.93;;;;;;;;;;5054861;28;21055;-72
2022/03/20 11:56:43;;;;;;;22.40;11.77;;;;;;;;;;5054787;28;20461;-72
2022/03/20 11:59:44;;;;;;;18.93;12.03;;;;;;;;;;5054388;28;20489;-72
2022/03/20 12:02:14;;;;;;;16.97;11.60;;;;;;;;;;5052952;28;20796;-72
2022/03/20 12:04:56;;;;;;;16.10;11.30;;;;;;;;;;5054758;28;20450;-72
2022/03/20 12:07:28;;;;;;;16.87;10.80;;;;;;;;;;5054199;28;20467;-73
2022/03/20 12:10:04;;;;;;;16.77;10.83;;;;;;;;;;5052491;28;20465;-72
2022/03/20 12:12:59;;;;;;;15.10;9.10;;;;;;;;;;5049267;28;20496;-73
2022/03/20 12:15:33;;;;;;;23.00;12.63;;;;;;;;;;5035720;28;20480;-74
2022/03/20 12:18:03;;;;;;;15.53;10.60;;;;;;;;;;5053899;28;20847;-75
2022/03/20 12:20:53;;;;;;;17.33;10.60;;;;;;;;;;5053344;28;20480;-75
2022/03/20 12:23:43;;;;;;;15.73;10.40;;;;;;;;;;5049070;28;20469;-74
2022/03/20 12:29:38;;;;;;;14.83;10.90;;;;;;;;;;5055965;28;20617;-75
2022/03/20 12:32:24;;;;;;;13.50;8.67;;;;;;;;;;4993189;28;20476;-75
2022/03/20 12:35:09;;;;;;;15.80;8.93;;;;;;;;;;5017670;28;20454;-75
2022/03/20 12:37:44;;;;;;;15.03;11.23;;;;;;;;;;5054330;28;20780;-77
2022/03/20 12:40:24;;;;;;;14.33;10.90;;;;;;;;;;5054391;28;20500;-76
2022/03/20 12:42:57;;;;;;;18.00;11.50;;;;;;;;;;5052686;28;20454;-77
2022/03/20 12:45:27;;;;;;;16.30;10.43;;;;;;;;;;5054612;28;20449;-74
2022/03/20 12:47:56;;;;;;;12.93;9.67;;;;;;;;;;5052954;28;20985;-73
2022/03/20 12:50:29;;;;;;;15.07;10.40;;;;;;;;;;5054455;28;20846;-74
2022/03/20 12:56:22;;;;;;;21.63;11.00;;;;;;;;;;4996944;28;20741;-73
2022/03/20 12:58:51;;;;;;;15.13;11.03;;;;;;;;;;5036186;28;20563;-73
2022/03/20 13:01:18;;;;;;;14.53;10.43;;;;;;;;;;5051888;28;20458;-72
2022/03/20 13:03:53;;;;;;;15.10;10.97;;;;;;;;;;5055388;28;20897;-74
2022/03/20 13:06:31;;;;;;;16.70;9.70;;;;;;;;;;5073588;28;20945;-73
2022/03/20 13:09:01;;;;;;;14.77;9.97;;;;;;;;;;5062335;28;20484;-73
2022/03/20 13:14:31;;;;;;;13.10;9.80;;;;;;;;;;5000436;28;20457;-73
2022/03/20 13:17:30;;;;;;;17.83;9.87;;;;;;;;;;5035352;28;20458;-72
2022/03/20 13:20:18;;;;;;;16.43;9.77;;;;;;;;;;4953550;28;20653;-72
2022/03/20 13:22:46;;;;;;;14.57;10.00;;;;;;;;;;4953190;28;20483;-74
2022/03/20 13:25:17;;;;;;;13.57;10.10;;;;;;;;;;4953228;28;20446;-72
2022/03/20 13:27:48;;;;;;;14.87;10.20;;;;;;;;;;4975298;28;20465;-73
2022/03/20 13:30:17;;;;;;;16.93;11.03;;;;;;;;;;4955923;28;20481;-73
2022/03/20 13:32:45;;;;;;;12.40;8.83;;;;;;;;;;4970825;28;20469;-72
2022/03/20 13:35:29;;;;;;;15.63;12.10;;;;;;;;;;4974860;28;20530;-72
2022/03/20 13:38:00;;;;;;;16.63;11.00;;;;;;;;;;5042046;28;20862;-73
2022/03/20 13:40:33;;;;;;;12.53;9.77;;;;;;;;;;5049676;28;20554;-74
2022/03/20 13:43:03;;;;;;;16.50;10.77;;;;;;;;;;5031301;28;20482;-74
2022/03/20 13:45:45;;;;;;;13.67;9.20;;;;;;;;;;5031783;28;20503;-73
2022/03/20 13:48:17;;;;;;;14.10;8.87;;;;;;;;;;5025872;28;20498;-73
2022/03/20 13:51:04;;;;;;;14.87;11.03;;;;;;;;;;5032856;28;20458;-73
2022/03/20 13:53:45;;;;;;;13.77;8.80;;;;;;;;;;5050330;28;20579;-72
2022/03/20 13:56:35;;;;;;;;;;;;;;;;;;;;;
2022/03/20 13:59:06;;;;;;;15.83;9.60;;;;;;;;;;5044434;28;20497;-71
2022/03/20 14:01:51;;;;;;;19.03;10.17;;;;;;;;;;5053446;28;20847;-73
2022/03/20 14:04:20;;;;;;;14.80;9.50;;;;;;;;;;5053084;28;20464;-73
2022/03/20 14:06:56;;;;;;;10.47;7.47;;;;;;;;;;5052282;28;20468;-72
2022/03/20 14:09:37;;;;;;;12.20;8.53;;;;;;;;;;5049100;28;20460;-72
2022/03/20 14:12:20;;;;;;;14.80;8.83;;;;;;;;;;5031331;28;20961;-72
2022/03/20 14:14:51;;;;;;;16.50;8.80;;;;;;;;;;5048015;28;20450;-73
2022/03/20 14:17:19;;;;;;;14.07;9.43;;;;;;;;;;5032381;28;20508;-73
2022/03/20 14:19:48;;;;;;;15.13;9.33;;;;;;;;;;5041825;28;20514;-73
2022/03/20 14:22:42;;;;;;;10.63;8.50;;;;;;;;;;5045182;28;20464;-73
2022/03/20 14:25:10;;;;;;;9.90;6.73;;;;;;;;;;5033260;28;20476;-72
2022/03/20 14:27:39;;;;;;;13.50;7.83;;;;;;;;;;5033294;28;20462;-72
2022/03/20 14:41:29;;;;;;;12.67;8.87;;;;;;;;;;5050333;28;20455;-73
2022/03/20 14:44:07;;;;;;;9.23;6.20;;;;;;;;;;5052239;28;20550;-74
2022/03/20 14:46:38;;;;;;;18.30;8.43;;;;;;;;;;5051578;28;20496;-73
2022/03/20 14:49:07;;;;;;;10.00;8.10;;;;;;;;;;5052333;28;20453;-72
2022/03/20 14:51:35;;;;;;;13.03;8.67;;;;;;;;;;5052897;28;20568;-73
2022/03/20 14:54:04;;;;;;;12.30;8.67;;;;;;;;;;5045382;28;20457;-73
2022/03/20 14:56:41;;;;;;;12.67;7.23;;;;;;;;;;5031990;28;20532;-72
2022/03/20 14:59:10;;;;;;;12.23;8.40;;;;;;;;;;5032222;28;20493;-72
2022/03/20 15:01:42;;;;;;;13.20;8.53;;;;;;;;;;5030998;28;20466;-72
2022/03/20 15:04:12;;;;;;;11.60;8.27;;;;;;;;;;5030326;28;20893;-73
2022/03/20 15:06:42;;;;;;;11.47;8.60;;;;;;;;;;5031089;28;20777;-73
2022/03/20 15:12:16;;;;;;;11.30;7.50;;;;;;;;;;5036259;28;20933;-73
2022/03/20 15:14:53;;;;;;;19.57;8.43;;;;;;;;;;5036958;28;20533;-73
2022/03/20 15:17:22;;;;;;;10.97;8.10;;;;;;;;;;5037388;28;20715;-72
2022/03/20 15:19:54;;;;;;;15.97;10.30;;;;;;;;;;5035887;28;20831;-72
2022/03/20 15:22:24;;;;;;;10.93;8.13;;;;;;;;;;5036561;28;20458;-72
2022/03/20 15:24:55;;;;;;;14.17;8.37;;;;;;;;;;5038087;28;20536;-72
2022/03/20 15:27:24;;;;;;;11.53;8.40;;;;;;;;;;5042936;28;20539;-74
2022/03/20 15:29:52;;;;;;;14.70;8.37;;;;;;;;;;5055950;28;21070;-72
2022/03/20 15:32:32;;;;;;;16.03;7.70;;;;;;;;;;5056125;28;20487;-73
2022/03/20 15:35:01;;;;;;;17.53;8.97;;;;;;;;;;5054635;28;20453;-71
2022/03/20 15:37:29;;;;;;;14.17;8.40;;;;;;;;;;5054919;28;20753;-72
2022/03/20 15:39:59;;;;;;;11.27;8.20;;;;;;;;;;5043500;28;20561;-73
2022/03/20 15:42:27;;;;;;;12.10;6.47;;;;;;;;;;5033725;28;20466;-73
2022/03/20 15:44:56;;;;;;;14.37;8.60;;;;;;;;;;5033586;28;20498;-73
2022/03/20 15:47:25;;;;;;;11.50;8.00;;;;;;;;;;5032835;28;20545;-73
2022/03/20 15:49:56;;;;;;;11.57;7.93;;;;;;;;;;5034572;28;20455;-71
2022/03/20 15:52:23;;;;;;;10.13;6.20;;;;;;;;;;5028436;28;20471;-71
2022/03/20 15:54:51;;;;;;;14.57;9.53;;;;;;;;;;5033595;28;20457;-73